Time;durP1;ratioP1;P1;durP2;ratioP2;P2;SDS_P1;SDS_P2;PMS_P1;PMS_P2;Temp;Humidity;BMP_temperature;BMP_pressure;BME280_temperature;BME280_humidity;BME280_pressure;Samples;Min_cycle;Max_cycle;Signal;HPM_P1;HPM_P2
2022/10/04 00:01:55;;;;;;;1.60;1.50;;;;;;;10.74;99.00;94684.28;5091735;28;20172;-61
2022/10/04 00:04:39;;;;;;;2.87;1.50;;;;;;;10.74;98.74;94681.75;5073527;28;20211;-62
2022/10/04 00:07:16;;;;;;;1.97;1.30;;;;;;;10.72;99.27;94688.69;5091661;28;20210;-62
2022/10/04 00:09:46;;;;;;;1.43;1.20;;;;;;;10.74;99.26;94689.38;5091552;28;20252;-62
2022/10/04 00:12:27;;;;;;;2.30;1.73;;;;;;;10.71;98.70;94692.16;5091369;28;20658;-62
2022/10/04 00:14:58;;;;;;;1.03;0.93;;;;;;;10.73;98.73;94698.72;5073312;28;20211;-62
2022/10/04 00:17:26;;;;;;;1.63;1.50;;;;;;;10.72;99.05;94693.78;5091388;28;20160;-63
2022/10/04 00:19:54;;;;;;;3.73;1.50;;;;;;;10.69;98.96;94699.13;5091643;28;20777;-61
2022/10/04 00:22:31;;;;;;;1.53;1.40;;;;;;;10.65;98.44;94696.03;5073093;28;20214;-62
2022/10/04 00:25:18;;;;;;;1.50;1.40;;;;;;;10.69;98.60;94694.03;5091487;28;20595;-59
2022/10/04 00:28:15;;;;;;;1.83;1.50;;;;;;;10.71;97.34;94703.13;5091305;28;20242;-62
2022/10/04 00:30:40;;;;;;;2.47;1.10;;;;;;;10.70;97.71;94696.47;5091092;28;20212;-62
2022/10/04 00:33:06;;;;;;;1.90;1.20;;;;;;;10.67;97.04;94700.97;5091123;28;20606;-61
2022/10/04 00:35:32;;;;;;;1.93;1.23;;;;;;;10.73;96.52;94708.91;5091082;28;20219;-62
2022/10/04 00:38:11;;;;;;;2.60;1.40;;;;;;;10.79;95.06;94720.28;5073017;28;20188;-62
2022/10/04 00:40:37;;;;;;;5.70;1.63;;;;;;;10.77;94.48;94732.31;5073139;28;20211;-58
2022/10/04 00:43:11;;;;;;;1.37;1.07;;;;;;;10.76;93.93;94733.28;5091032;28;20641;-59
2022/10/04 00:45:44;;;;;;;2.87;1.17;;;;;;;10.67;93.57;94732.28;5081108;22;20294;-59
2022/10/04 00:48:23;;;;;;;2.40;1.27;;;;;;;10.67;93.59;94727.22;5070230;28;20208;-58
2022/10/04 00:50:56;;;;;;;2.77;1.20;;;;;;;10.65;93.89;94707.94;5050752;28;20185;-60
2022/10/04 00:53:50;;;;;;;0.97;0.90;;;;;;;10.64;93.85;94702.06;5032779;28;20189;-58
2022/10/04 00:56:25;;;;;;;2.23;0.93;;;;;;;10.58;94.21;94689.88;5064769;22;21429;-60
2022/10/04 00:58:53;;;;;;;2.30;0.87;;;;;;;10.56;94.08;94688.38;5090853;28;20215;-59
2022/10/04 01:01:23;;;;;;;1.67;1.03;;;;;;;10.60;94.18;94694.81;5090927;28;20212;-60
2022/10/04 01:03:51;;;;;;;2.53;1.27;;;;;;;10.61;93.43;94711.66;5072563;28;20220;-59
2022/10/04 01:06:21;;;;;;;1.50;0.93;;;;;;;10.59;93.54;94703.38;5090692;28;20606;-59
2022/10/04 01:08:50;;;;;;;1.80;1.20;;;;;;;10.53;93.16;94706.41;5072528;28;20220;-58
2022/10/04 01:11:20;;;;;;;1.40;1.10;;;;;;;10.50;92.93;94699.06;5094363;28;20272;-63
2022/10/04 01:14:10;;;;;;;2.17;1.17;;;;;;;10.51;92.98;94714.19;5094243;28;20211;-62
2022/10/04 01:16:37;;;;;;;0.77;0.70;;;;;;;10.48;93.54;94703.47;5094670;28;20184;-62
2022/10/04 01:19:20;;;;;;;1.13;1.00;;;;;;;10.50;93.93;94699.06;5094209;28;20257;-62
2022/10/04 01:21:55;;;;;;;0.90;0.90;;;;;;;10.49;93.15;94707.59;5094088;28;20270;-60
2022/10/04 01:24:21;;;;;;;3.57;1.20;;;;;;;10.46;93.63;94687.53;5075998;28;20208;-60
2022/10/04 01:26:47;;;;;;;1.20;0.90;;;;;;;10.48;93.52;94688.22;5076027;28;20610;-62
2022/10/04 01:29:15;;;;;;;1.60;1.00;;;;;;;10.43;93.09;94685.25;5075921;28;20211;-61
2022/10/04 01:31:49;;;;;;;2.47;1.20;;;;;;;10.41;93.25;94689.66;5075932;28;20233;-61
2022/10/04 01:34:18;;;;;;;0.90;0.80;;;;;;;10.40;93.45;94688.06;5094086;28;20247;-59
2022/10/04 01:36:46;;;;;;;3.00;1.10;;;;;;;10.40;93.20;94705.84;5094193;28;20650;-59
2022/10/04 01:39:12;;;;;;;2.70;0.90;;;;;;;10.32;93.25;94703.13;5093840;28;20191;-62
2022/10/04 01:41:41;;;;;;;6.03;1.67;;;;;;;10.35;92.01;94721.47;5094041;28;20184;-61
2022/10/04 01:44:11;;;;;;;1.10;0.83;;;;;;;10.37;91.37;94724.69;5093821;28;20204;-61
2022/10/04 01:46:39;;;;;;;1.07;0.83;;;;;;;10.39;90.87;94729.63;5093881;28;20274;-63
2022/10/04 01:49:19;;;;;;;0.80;0.80;;;;;;;10.41;90.85;94718.41;5075696;28;20730;-59
2022/10/04 01:52:00;;;;;;;1.10;0.93;;;;;;;10.39;90.41;94727.91;5093631;28;20196;-59
2022/10/04 01:54:36;;;;;;;2.70;2.20;;;;;;;10.33;90.98;94719.97;5093649;28;20290;-64
2022/10/04 01:57:26;;;;;;;1.67;1.40;;;;;;;10.23;91.69;94707.22;5075766;28;20199;-62
2022/10/04 01:59:57;;;;;;;1.10;1.00;;;;;;;10.25;92.37;94705.38;5093690;28;20204;-62
2022/10/04 02:02:38;;;;;;;1.07;1.03;;;;;;;10.22;91.85;94698.00;5093739;28;20184;-64
2022/10/04 02:05:09;;;;;;;1.23;1.10;;;;;;;10.23;92.09;94711.50;5093309;28;20265;-61
2022/10/04 02:07:38;;;;;;;1.00;0.80;;;;;;;10.16;92.11;94703.56;5093462;28;20218;-60
2022/10/04 02:10:07;;;;;;;2.00;1.27;;;;;;;10.18;92.82;94704.25;5075039;28;20212;-58
2022/10/04 02:12:37;;;;;;;0.80;0.80;;;;;;;10.10;93.42;94694.72;5093277;28;20184;-60
2022/10/04 02:15:07;;;;;;;1.90;0.90;;;;;;;10.07;93.47;94687.34;5093181;28;20257;-62
2022/10/04 02:17:37;;;;;;;1.40;1.10;;;;;;;10.06;94.17;94685.72;5093320;28;20214;-61
2022/10/04 02:20:13;;;;;;;2.93;1.00;;;;;;;10.06;94.47;94683.19;5092913;28;20245;-59
2022/10/04 02:22:40;;;;;;;2.30;1.17;;;;;;;10.10;95.09;94678.69;5093279;28;20199;-62
2022/10/04 02:25:06;;;;;;;3.43;1.00;;;;;;;9.97;96.46;94650.94;5093008;28;20208;-61
2022/10/04 02:27:32;;;;;;;1.67;1.00;;;;;;;10.01;96.29;94657.38;5074960;28;20726;-60
2022/10/04 02:30:07;;;;;;;1.20;1.10;;;;;;;9.99;97.20;94651.63;5093116;28;20292;-59
2022/10/04 02:35:19;;;;;;;1.47;1.00;;;;;;;10.04;97.23;94659.66;5092787;28;20276;-61
2022/10/04 02:37:51;;;;;;;1.00;0.90;;;;;;;10.05;97.31;94651.13;5092902;28;20193;-61
2022/10/04 02:40:21;;;;;;;2.33;1.07;;;;;;;10.04;97.54;94661.38;5093161;28;20208;-61
2022/10/04 02:42:56;;;;;;;1.23;0.90;;;;;;;10.00;97.73;94657.47;5092808;28;20248;-61
2022/10/04 02:45:40;;;;;;;2.27;1.20;;;;;;;10.00;98.96;94654.94;5074593;28;20212;-62
2022/10/04 02:48:35;;;;;;;2.00;1.03;;;;;;;9.99;99.78;94650.81;5092815;28;20207;-59
2022/10/04 02:51:32;;;;;;;1.40;1.20;;;;;;;9.98;100.00;94639.84;5090185;28;20220;-62
2022/10/04 02:54:02;;;;;;;4.83;1.10;;;;;;;9.97;100.00;94650.94;5091205;28;20227;-60
2022/10/04 02:56:28;;;;;;;1.53;1.30;;;;;;;10.02;100.00;94648.00;5092665;28;20219;-60
2022/10/04 02:59:00;;;;;;;0.93;0.93;;;;;;;10.01;100.00;94639.59;5092766;28;20244;-61
2022/10/04 03:01:49;;;;;;;1.90;1.10;;;;;;;10.04;100.00;94652.03;5074488;28;20218;-61
2022/10/04 03:04:15;;;;;;;2.63;1.30;;;;;;;10.09;100.00;94651.66;5026713;28;20281;-62
2022/10/04 03:06:44;;;;;;;2.20;1.33;;;;;;;10.06;100.00;94650.16;5092900;28;20266;-59
2022/10/04 03:09:10;;;;;;;1.10;1.00;;;;;;;10.10;100.00;94659.16;5074189;28;20268;-60
2022/10/04 03:11:39;;;;;;;3.43;1.30;;;;;;;10.10;100.00;94681.22;5092672;28;20191;-61
2022/10/04 03:14:12;;;;;;;3.30;1.17;;;;;;;10.07;100.00;94668.75;5092511;28;20207;-61
2022/10/04 03:16:41;;;;;;;3.00;1.23;;;;;;;10.05;100.00;94661.28;5074634;28;20188;-60
2022/10/04 03:19:08;;;;;;;4.80;1.37;;;;;;;10.08;100.00;94657.66;5092300;28;20265;-62
2022/10/04 03:21:38;;;;;;;1.67;1.00;;;;;;;10.01;100.00;94662.47;5092293;28;20191;-60
2022/10/04 03:24:05;;;;;;;2.07;1.57;;;;;;;9.99;100.00;94659.25;5092167;28;20208;-61
2022/10/04 03:26:44;;;;;;;1.93;1.10;;;;;;;10.04;100.00;94656.28;5074349;28;20275;-60
2022/10/04 03:29:12;;;;;;;2.23;1.10;;;;;;;10.09;100.00;94675.31;5092502;28;20211;-62
2022/10/04 03:31:48;;;;;;;2.87;1.00;;;;;;;10.01;100.00;94672.63;5073715;28;20269;-59
2022/10/04 03:34:17;;;;;;;2.50;1.20;;;;;;;9.99;100.00;94666.84;5091804;28;20214;-61
2022/10/04 03:36:45;;;;;;;2.50;1.23;;;;;;;9.98;100.00;94672.84;5092105;28;20616;-58
2022/10/04 03:39:12;;;;;;;3.37;1.10;;;;;;;9.96;100.00;94666.28;5073935;28;20642;-59
2022/10/04 03:41:39;;;;;;;5.03;1.57;;;;;;;9.96;100.00;94671.34;5092194;28;20191;-59
2022/10/04 03:44:12;;;;;;;2.03;1.20;;;;;;;9.91;100.00;94671.75;5092019;28;20220;-62
2022/10/04 03:46:38;;;;;;;1.67;1.23;;;;;;;9.91;100.00;94676.84;5092432;28;20180;-62
2022/10/04 03:49:06;;;;;;;3.77;0.97;;;;;;;9.84;100.00;94677.44;5091685;28;20216;-62
2022/10/04 03:51:32;;;;;;;1.97;1.30;;;;;;;9.84;100.00;94675.72;5092068;28;20180;-59
2022/10/04 03:54:01;;;;;;;2.70;1.40;;;;;;;9.89;100.00;94678.69;5091674;28;20208;-60
2022/10/04 03:56:35;;;;;;;1.27;1.17;;;;;;;9.88;100.00;94684.69;5091934;28;20271;-61
2022/10/04 03:59:05;;;;;;;2.07;1.10;;;;;;;9.89;100.00;94693.94;5091562;28;20709;-60
2022/10/04 04:02:09;;;;;;;1.83;1.47;;;;;;;9.85;100.00;94691.75;5073789;28;20223;-59
2022/10/04 04:05:01;;;;;;;2.53;1.50;;;;;;;9.88;100.00;94692.31;5091578;28;20219;-59
2022/10/04 04:08:11;;;;;;;1.67;1.20;;;;;;;9.87;100.00;94684.81;5091223;28;20228;-60
2022/10/04 04:10:41;;;;;;;1.40;1.30;;;;;;;9.87;100.00;94685.63;4989620;28;20211;-59
2022/10/04 04:13:32;;;;;;;3.17;1.20;;;;;;;9.90;100.00;94695.53;4989886;28;20311;-60
2022/10/04 04:16:01;;;;;;;2.43;1.50;;;;;;;9.83;100.00;94696.97;5024015;28;20207;-59
2022/10/04 04:18:31;;;;;;;1.77;1.40;;;;;;;9.81;100.00;94683.59;5091378;28;20208;-60
2022/10/04 04:21:00;;;;;;;2.33;1.13;;;;;;;9.90;100.00;94694.72;5092020;28;20596;-60
2022/10/04 04:23:31;;;;;;;5.97;1.33;;;;;;;9.90;100.00;94698.06;5091206;28;20176;-60
2022/10/04 04:26:11;;;;;;;2.30;1.83;;;;;;;9.91;100.00;94699.69;5091247;28;20191;-63
2022/10/04 04:28:47;;;;;;;2.30;1.67;;;;;;;9.83;100.00;94707.13;5091200;28;20218;-60
2022/10/04 04:31:37;;;;;;;2.90;1.70;;;;;;;9.88;100.00;94702.47;5091226;28;20188;-60
2022/10/04 04:34:14;;;;;;;1.70;1.40;;;;;;;9.91;100.00;94704.75;5073097;28;20697;-62
2022/10/04 04:36:41;;;;;;;10.33;1.80;;;;;;;9.99;100.00;94704.94;5091665;28;20609;-60
2022/10/04 04:42:05;;;;;;;5.83;1.60;;;;;;;10.04;100.00;94729.94;5091544;28;20245;-61
2022/10/04 04:44:30;;;;;;;1.57;1.47;;;;;;;10.12;100.00;94720.81;5089833;28;20218;-62
2022/10/04 04:46:59;;;;;;;2.10;1.30;;;;;;;10.09;100.00;94726.13;5091221;28;20274;-59
2022/10/04 04:49:28;;;;;;;2.67;1.63;;;;;;;10.02;100.00;94730.06;5090842;28;20358;-60
2022/10/04 04:51:56;;;;;;;4.20;1.70;;;;;;;10.14;100.00;94718.94;5073536;28;20188;-59
2022/10/04 04:54:24;;;;;;;3.97;1.60;;;;;;;10.05;100.00;94726.50;5072725;28;20212;-60
2022/10/04 04:56:52;;;;;;;2.80;1.80;;;;;;;9.97;100.00;94754.25;5091348;28;20191;-59
2022/10/04 04:59:24;;;;;;;4.33;2.60;;;;;;;10.22;100.00;94745.47;5090524;28;20215;-60
2022/10/04 05:01:49;;;;;;;5.37;2.10;;;;;;;10.03;100.00;94776.59;5090624;28;20223;-61
2022/10/04 05:04:22;;;;;;;3.43;1.77;;;;;;;10.03;100.00;94772.34;5072443;28;20205;-60
2022/10/04 05:07:15;;;;;;;7.63;1.93;;;;;;;10.03;100.00;94774.88;5090318;28;20184;-60
2022/10/04 05:09:41;;;;;;;3.27;1.90;;;;;;;10.03;100.00;94777.41;5060049;28;20227;-63
2022/10/04 05:12:18;;;;;;;3.23;1.93;;;;;;;10.01;100.00;94769.13;5090556;28;20646;-59
2022/10/04 05:14:50;;;;;;;3.33;2.30;;;;;;;9.99;100.00;94768.44;5090685;28;20207;-60
2022/10/04 05:17:19;;;;;;;6.03;1.80;;;;;;;9.98;100.00;94771.88;5072897;28;20290;-61
2022/10/04 05:19:46;;;;;;;5.27;2.80;;;;;;;10.00;100.00;94775.09;5090416;28;20292;-61
2022/10/04 05:22:13;;;;;;;2.70;1.80;;;;;;;10.08;100.00;94795.63;5090890;28;20362;-60
2022/10/04 05:24:43;;;;;;;2.97;1.80;;;;;;;10.18;99.70;94816.03;5090479;28;20292;-61
2022/10/04 05:27:21;;;;;;;4.57;1.70;;;;;;;10.11;100.00;94809.84;5090159;28;20664;-59
2022/10/04 05:30:08;;;;;;;6.70;2.73;;;;;;;10.18;99.34;94815.25;5090487;28;20574;-61
2022/10/04 05:33:03;;;;;;;3.10;2.60;;;;;;;10.23;99.50;94818.19;5090204;28;20192;-61
2022/10/04 05:35:50;;;;;;;4.63;2.30;;;;;;;10.28;99.50;94824.50;5090328;28;20205;-61
2022/10/04 05:38:26;;;;;;;5.60;2.17;;;;;;;10.24;98.90;94835.06;5090421;28;20200;-59
2022/10/04 05:41:07;;;;;;;5.97;2.50;;;;;;;10.20;98.96;94831.16;5090483;28;20215;-62
2022/10/04 05:43:45;;;;;;;2.53;2.00;;;;;;;10.26;99.19;94833.22;5090225;28;20224;-62
2022/10/04 05:46:32;;;;;;;5.90;2.53;;;;;;;10.33;98.71;94839.41;5090307;28;20229;-61
2022/10/04 05:49:03;;;;;;;5.90;2.60;;;;;;;10.29;99.11;94833.75;5090300;28;20224;-62
2022/10/04 05:51:36;;;;;;;3.13;2.17;;;;;;;10.33;99.75;94835.13;5090286;28;20188;-62
2022/10/04 05:54:03;;;;;;;4.40;2.00;;;;;;;10.35;99.64;94845.97;5071783;28;20273;-62
2022/10/04 05:57:05;;;;;;;3.77;1.93;;;;;;;10.49;98.48;94855.81;5092398;28;20291;-65
2022/10/04 05:59:42;;;;;;;2.93;1.97;;;;;;;10.45;97.92;94871.44;5093498;28;20214;-61
2022/10/04 06:02:11;;;;;;;3.87;1.80;;;;;;;10.51;97.11;94884.47;5094027;28;20215;-60
2022/10/04 06:04:45;;;;;;;2.47;2.03;;;;;;;10.63;96.93;94882.66;5093329;28;20216;-61
2022/10/04 06:07:20;;;;;;;2.50;1.73;;;;;;;10.72;96.69;94892.09;5093768;28;20224;-62
2022/10/04 06:09:56;;;;;;;2.30;1.77;;;;;;;10.67;96.70;94889.91;5093340;28;20199;-62
2022/10/04 06:12:41;;;;;;;2.27;2.03;;;;;;;10.57;96.67;94891.59;5094032;28;20213;-60
2022/10/04 06:15:24;;;;;;;4.17;1.70;;;;;;;10.65;96.99;94883.34;5093269;28;20208;-59
2022/10/04 06:18:34;;;;;;;3.43;1.90;;;;;;;10.66;97.38;94893.41;5093213;28;20210;-61
2022/10/04 06:21:19;;;;;;;3.43;2.37;;;;;;;10.71;96.60;94900.66;4991611;28;20225;-60
2022/10/04 06:24:03;;;;;;;2.60;2.17;;;;;;;10.86;96.56;94915.47;4991445;28;20254;-60
2022/10/04 06:26:39;;;;;;;2.27;1.80;;;;;;;10.87;96.47;94906.91;5068894;28;20283;-60
2022/10/04 06:29:11;;;;;;;2.70;1.93;;;;;;;11.03;95.67;94928.56;5092737;28;20258;-59
2022/10/04 06:32:03;;;;;;;3.47;1.70;;;;;;;10.95;93.63;94950.31;5074982;28;20226;-60
2022/10/04 06:34:41;;;;;;;2.60;2.17;;;;;;;11.29;93.75;94950.91;5092833;28;20219;-59
2022/10/04 06:37:08;;;;;;;3.57;2.10;;;;;;;11.40;92.16;94980.56;5093177;28;20214;-61
2022/10/04 06:40:08;;;;;;;5.50;2.63;;;;;;;11.48;92.04;94973.91;5092743;28;20212;-60
2022/10/04 06:43:11;;;;;;;2.27;2.07;;;;;;;11.55;91.48;94979.31;5093245;28;20180;-63
2022/10/04 06:45:51;;;;;;;2.13;1.80;;;;;;;11.57;90.92;94993.50;5092437;28;20207;-62
2022/10/04 06:48:27;;;;;;;9.67;3.03;;;;;;;11.76;90.77;95001.25;5074554;28;20599;-62
2022/10/04 06:51:31;;;;;;;2.37;1.67;;;;;;;11.81;90.44;94995.78;5092861;28;20251;-62
2022/10/04 06:54:13;;;;;;;2.73;2.07;;;;;;;11.85;87.63;95044.72;5092543;28;20220;-60
2022/10/04 06:56:52;;;;;;;5.53;2.20;;;;;;;12.08;88.18;95030.88;5093389;28;20188;-59
2022/10/04 06:59:17;;;;;;;4.93;2.10;;;;;;;12.14;87.11;95043.88;5074291;28;20216;-63
2022/10/04 07:02:07;;;;;;;1.53;1.43;;;;;;;12.06;86.63;95055.69;5074385;28;20229;-61
2022/10/04 07:04:38;;;;;;;3.17;2.03;;;;;;;11.99;87.06;95036.75;5092247;28;20208;-63
2022/10/04 07:07:23;;;;;;;3.40;2.13;;;;;;;12.12;86.14;95050.84;5091095;28;20219;-64
2022/10/04 07:10:15;;;;;;;4.07;1.87;;;;;;;12.12;85.73;95055.97;5092397;28;20254;-59
2022/10/04 07:12:44;;;;;;;4.23;2.03;;;;;;;12.25;84.78;95073.56;5092472;28;20253;-62
2022/10/04 07:15:25;;;;;;;8.57;2.13;;;;;;;12.35;84.44;95076.97;5092333;28;20200;-62
2022/10/04 07:17:52;;;;;;;1.67;1.53;;;;;;;12.50;84.48;95081.56;5092347;28;20192;-62
2022/10/04 07:20:32;;;;;;;1.90;1.30;;;;;;;12.04;82.49;95124.59;5092074;28;20223;-62
2022/10/04 07:23:27;;;;;;;1.90;1.63;;;;;;;12.01;83.27;95101.13;5092218;28;20283;-60
2022/10/04 07:26:00;;;;;;;3.87;2.67;;;;;;;12.06;84.01;95081.94;5047084;28;20206;-60
2022/10/04 07:31:34;;;;;;;2.73;1.97;;;;;;;12.11;82.95;95112.16;5092265;28;20244;-60
2022/10/04 07:34:25;;;;;;;3.03;1.57;;;;;;;12.13;82.54;95112.84;5091930;28;20209;-61
2022/10/04 07:37:05;;;;;;;1.80;1.70;;;;;;;12.02;82.94;95105.28;5092594;28;20592;-60
2022/10/04 07:39:41;;;;;;;3.20;1.83;;;;;;;12.18;83.25;95097.97;5091992;28;20700;-60
2022/10/04 07:42:28;;;;;;;2.13;1.97;;;;;;;12.23;82.93;95103.50;5092498;28;20198;-63
2022/10/04 07:45:20;;;;;;;3.50;2.30;;;;;;;12.07;82.03;95124.34;5091768;28;20230;-61
2022/10/04 07:47:46;;;;;;;2.53;1.80;;;;;;;12.20;81.78;95137.69;5091848;28;20302;-62
2022/10/04 07:50:29;;;;;;;2.80;1.60;;;;;;;12.08;80.37;95155.75;5091684;28;20257;-62
2022/10/04 07:53:22;;;;;;;5.57;1.80;;;;;;;12.06;80.94;95137.22;5073813;28;20206;-61
2022/10/04 07:56:00;;;;;;;3.57;2.20;;;;;;;12.12;82.99;95099.28;5091976;28;20189;-61
2022/10/04 07:58:35;;;;;;;1.80;1.70;;;;;;;12.13;81.94;95118.75;5073826;28;20204;-60
2022/10/04 08:01:27;;;;;;;2.00;1.80;;;;;;;12.32;81.19;95146.06;5092208;28;20180;-61
2022/10/04 08:04:17;;;;;;;2.10;1.67;;;;;;;12.14;81.69;95124.66;5044412;28;20315;-62
2022/10/04 08:07:04;;;;;;;2.27;1.40;;;;;;;12.00;79.37;95164.00;5091762;28;20196;-62
2022/10/04 08:09:53;;;;;;;1.73;1.50;;;;;;;11.99;79.43;95166.69;5091618;28;20771;-62
2022/10/04 08:12:33;;;;;;;1.63;1.53;;;;;;;11.87;79.74;95150.66;5091788;28;20187;-63
2022/10/04 08:15:33;;;;;;;2.23;1.50;;;;;;;11.97;80.09;95132.88;5073176;28;20303;-63
2022/10/04 08:18:18;;;;;;;1.77;1.67;;;;;;;12.10;80.68;95129.19;5073290;28;20286;-61
2022/10/04 08:20:55;;;;;;;3.53;1.63;;;;;;;12.14;80.00;95134.84;5091556;28;20227;-60
2022/10/04 08:23:59;;;;;;;1.87;1.67;;;;;;;12.40;79.77;95146.22;5091417;28;20665;-62
2022/10/04 08:27:11;;;;;;;2.23;1.70;;;;;;;12.40;78.51;95175.06;5091503;28;20575;-59
2022/10/04 08:29:43;;;;;;;4.23;2.17;;;;;;;12.70;77.47;95199.75;5091220;28;20208;-61
2022/10/04 08:32:14;;;;;;;3.30;2.30;;;;;;;12.74;76.65;95211.31;5091276;28;20183;-63
2022/10/04 08:35:11;;;;;;;5.00;2.20;;;;;;;12.70;75.37;95230.38;5091085;28;20220;-62
2022/10/04 08:38:15;;;;;;;1.70;1.33;;;;;;;12.79;74.45;95237.25;5073120;28;20192;-62
2022/10/04 08:41:15;;;;;;;4.47;2.53;;;;;;;13.21;72.90;95258.38;5091198;28;20206;-62
2022/10/04 08:44:06;;;;;;;1.27;1.03;;;;;;;13.64;71.27;95286.13;5091277;28;20768;-61
2022/10/04 08:46:57;;;;;;;1.93;1.63;;;;;;;13.94;70.18;95293.69;5072749;28;20199;-60
2022/10/04 08:49:38;;;;;;;2.80;1.60;;;;;;;14.37;68.51;95314.56;5091064;28;20297;-60
2022/10/04 08:52:36;;;;;;;4.37;2.00;;;;;;;14.20;69.50;95279.44;5091325;28;20179;-61
2022/10/04 08:55:22;;;;;;;3.67;1.63;;;;;;;13.80;69.47;95266.78;5090814;28;20729;-61
2022/10/04 08:58:12;;;;;;;2.30;1.40;;;;;;;14.10;69.14;95264.06;5090819;28;20192;-63
2022/10/04 09:01:13;;;;;;;1.63;1.20;;;;;;;13.54;70.60;95241.88;5090689;28;20200;-61
2022/10/04 09:04:00;;;;;;;1.67;1.27;;;;;;;13.34;72.26;95195.09;5090880;28;20191;-61
2022/10/04 09:06:37;;;;;;;1.80;1.50;;;;;;;13.74;71.16;95220.50;5072731;28;20199;-62
2022/10/04 09:09:43;;;;;;;1.53;1.40;;;;;;;14.14;70.01;95251.81;5090680;28;20227;-59
2022/10/04 09:12:19;;;;;;;2.03;1.50;;;;;;;14.39;67.69;95306.75;5072586;28;20194;-63
2022/10/04 09:15:06;;;;;;;2.47;1.50;;;;;;;14.24;67.53;95301.22;5090514;28;20215;-63
2022/10/04 09:17:52;;;;;;;2.10;1.58;;;;;;;14.29;67.07;95297.34;5090547;28;20184;-59
2022/10/04 09:20:42;;;;;;;1.50;1.27;;;;;;;14.85;67.18;95293.97;5090403;28;20302;-62
2022/10/04 09:23:28;;;;;;;1.33;1.13;;;;;;;14.88;65.14;95335.47;5090481;28;20272;-64
2022/10/04 09:26:31;;;;;;;1.37;1.00;;;;;;;14.88;66.01;95309.06;5072562;28;20192;-60
2022/10/04 09:29:15;;;;;;;2.25;1.20;;;;;;;15.38;64.29;95360.78;5018948;28;20759;-62
2022/10/04 09:32:15;;;;;;;1.48;1.38;;;;;;;16.03;63.04;95373.41;5074937;28;20196;-62
2022/10/04 09:35:06;;;;;;;2.70;1.30;;;;;;;16.15;60.85;95420.97;5075701;28;20224;-60
2022/10/04 09:37:43;;;;;;;0.98;0.90;;;;;;;15.94;61.87;95387.09;5094021;28;20704;-60
2022/10/04 09:40:21;;;;;;;1.40;1.30;;;;;;;16.50;61.09;95397.91;5093851;28;20212;-60
2022/10/04 09:43:28;;;;;;;1.10;1.10;;;;;;;16.40;59.80;95427.97;5093978;28;20625;-60
2022/10/04 09:46:28;;;;;;;5.85;1.60;;;;;;;16.59;60.10;95415.03;5093979;28;20196;-60
2022/10/04 09:49:17;;;;;;;1.27;1.10;;;;;;;16.85;58.90;95432.25;5093878;28;20212;-61
2022/10/04 09:52:13;;;;;;;2.72;1.30;;;;;;;17.26;57.01;95467.56;5093719;28;20204;-60
2022/10/04 09:54:50;;;;;;;1.02;0.90;;;;;;;16.66;57.24;95440.91;5075534;28;20215;-59
2022/10/04 09:57:54;;;;;;;1.40;1.15;;;;;;;16.40;58.39;95392.03;5093652;28;20184;-61
2022/10/04 10:00:23;;;;;;;2.42;1.13;;;;;;;16.57;59.04;95372.47;5048530;28;20318;-62
2022/10/04 10:03:57;;;;;;;1.20;1.20;;;;;;;17.86;57.23;95438.34;5075780;28;20294;-61
2022/10/04 10:06:30;;;;;;;1.05;1.05;;;;;;;17.18;56.96;95428.94;4949936;28;20204;-61
2022/10/04 10:09:14;;;;;;;0.98;0.98;;;;;;;17.50;56.53;95439.44;5074598;28;20273;-61
2022/10/04 10:15:22;;;;;;;2.65;1.30;;;;;;;18.17;56.03;95444.56;5093372;28;20601;-61
2022/10/04 10:17:51;;;;;;;2.15;1.20;;;;;;;17.63;55.27;95450.16;5075216;28;20196;-61
2022/10/04 10:20:25;;;;;;;3.67;1.20;;;;;;;17.65;55.41;95447.41;5093263;28;20208;-61
2022/10/04 10:23:15;;;;;;;1.42;1.33;;;;;;;16.67;57.30;95381.72;5093618;28;20719;-60
2022/10/04 10:26:02;;;;;;;1.90;1.40;;;;;;;16.52;58.89;95339.53;5075150;28;20224;-63
2022/10/04 10:29:04;;;;;;;1.50;1.40;;;;;;;17.25;57.68;95369.06;5093204;28;20204;-65
2022/10/04 10:31:39;;;;;;;2.15;0.90;;;;;;;17.05;56.74;95405.44;5093193;28;20192;-63
2022/10/04 10:34:48;;;;;;;1.10;1.00;;;;;;;16.72;57.13;95387.19;5075028;28;20361;-62
2022/10/04 10:37:33;;;;;;;1.83;1.30;;;;;;;16.02;59.96;95296.63;5093046;28;20231;-64
2022/10/04 10:40:22;;;;;;;3.78;1.10;;;;;;;15.62;62.04;95248.31;5092947;28;20224;-63
2022/10/04 10:42:59;;;;;;;1.38;1.27;;;;;;;15.87;62.44;95229.63;5092919;28;20184;-60
2022/10/04 10:45:43;;;;;;;1.77;1.48;;;;;;;16.26;62.01;95263.47;5092748;28;20216;-62
2022/10/04 10:48:14;;;;;;;2.92;1.40;;;;;;;16.64;63.00;95233.06;5093195;28;20232;-60
2022/10/04 10:51:09;;;;;;;1.30;1.20;;;;;;;17.26;59.65;95341.63;5092886;28;20572;-64
2022/10/04 10:54:12;;;;;;;1.27;1.10;;;;;;;16.55;60.48;95303.31;5093237;28;20192;-64
2022/10/04 10:57:26;;;;;;;1.38;1.27;;;;;;;17.01;59.51;95322.69;5092822;28;20194;-62
2022/10/04 11:00:10;;;;;;;1.40;1.30;;;;;;;16.84;58.71;95356.97;5020397;28;20276;-62
2022/10/04 11:03:03;;;;;;;1.60;1.30;;;;;;;16.44;59.30;95324.03;5092632;28;20196;-67
2022/10/04 11:05:47;;;;;;;2.22;1.73;;;;;;;16.10;60.28;95289.78;5092616;28;20211;-60
2022/10/04 11:08:49;;;;;;;3.05;1.42;;;;;;;15.98;60.37;95296.06;5092853;28;20204;-60
2022/10/04 11:11:40;;;;;;;1.50;1.40;;;;;;;16.04;60.02;95303.19;5092693;28;20195;-63
2022/10/04 11:14:45;;;;;;;1.77;1.40;;;;;;;16.07;61.61;95259.31;5092572;28;20232;-63
2022/10/04 11:17:35;;;;;;;10.52;2.20;;;;;;;16.12;59.42;95321.22;5092600;28;20192;-60
2022/10/04 11:20:34;;;;;;;2.75;1.23;;;;;;;16.90;58.32;95355.53;5099899;22;20234;-59
2022/10/04 11:23:45;;;;;;;1.90;1.58;;;;;;;17.51;55.92;95431.56;5092330;28;20249;-59
2022/10/04 11:26:38;;;;;;;3.83;1.85;;;;;;;17.86;56.29;95412.63;5072021;28;20658;-60
2022/10/04 11:29:28;;;;;;;2.83;1.42;;;;;;;18.65;54.57;95472.22;5072160;28;20224;-61
2022/10/04 11:32:00;;;;;;;2.88;1.88;;;;;;;17.94;53.34;95505.25;5071835;28;20662;-61
2022/10/04 11:34:38;;;;;;;3.35;1.52;;;;;;;17.63;55.04;95450.94;5072058;28;20697;-60
2022/10/04 11:37:40;;;;;;;2.58;1.35;;;;;;;16.79;57.13;95374.56;5071981;28;20197;-60
2022/10/04 11:40:11;;;;;;;1.40;1.30;;;;;;;16.78;57.86;95348.09;5061780;28;20654;-63
2022/10/04 11:43:03;;;;;;;1.45;1.35;;;;;;;16.03;58.91;95314.41;5071947;28;20693;-62
2022/10/04 11:45:41;;;;;;;2.92;1.60;;;;;;;16.46;58.30;95345.22;5071641;28;20724;-62
2022/10/04 11:48:28;;;;;;;2.15;1.30;;;;;;;17.50;55.51;95431.75;5071504;28;20208;-63
2022/10/04 11:51:12;;;;;;;2.75;1.30;;;;;;;18.43;54.32;95468.47;5071957;28;20265;-60
2022/10/04 11:53:53;;;;;;;1.25;1.17;;;;;;;19.11;53.46;95487.06;5071070;28;20199;-61
2022/10/04 11:56:43;;;;;;;3.88;1.38;;;;;;;18.20;53.53;95466.63;5071986;28;20271;-61
2022/10/04 11:59:34;;;;;;;2.85;1.40;;;;;;;18.11;54.67;95424.59;5071887;28;20215;-64
2022/10/04 12:02:32;;;;;;;1.10;1.10;;;;;;;17.61;54.50;95442.56;5071699;28;20237;-60
2022/10/04 12:05:06;;;;;;;1.55;1.20;;;;;;;16.63;56.63;95375.25;5026843;28;20235;-60
2022/10/04 12:07:50;;;;;;;1.83;1.70;;;;;;;16.04;59.11;95300.63;5070799;28;20234;-61
2022/10/04 12:10:21;;;;;;;2.42;1.38;;;;;;;16.63;58.14;95330.78;5070066;28;20252;-61
2022/10/04 12:13:21;;;;;;;1.50;1.40;;;;;;;16.51;57.60;95348.22;5052803;28;20185;-62
2022/10/04 12:16:26;;;;;;;1.83;1.70;;;;;;;15.98;58.79;95307.16;5093176;22;20224;-59
2022/10/04 12:19:00;;;;;;;3.38;1.95;;;;;;;15.90;59.34;95285.75;5072001;22;20217;-64
2022/10/04 12:21:35;;;;;;;1.90;1.80;;;;;;;15.83;59.96;95262.47;5071134;28;20223;-61
2022/10/04 12:24:26;;;;;;;2.50;1.50;;;;;;;16.11;60.09;95272.63;5071280;28;20291;-63
2022/10/04 12:27:13;;;;;;;2.05;1.60;;;;;;;15.86;60.87;95246.78;5071319;28;20704;-62
2022/10/04 12:30:16;;;;;;;2.47;1.77;;;;;;;16.52;57.52;95349.03;5053062;28;20243;-60
2022/10/04 12:33:00;;;;;;;1.52;1.42;;;;;;;16.72;56.03;95389.75;5071211;28;20626;-61
2022/10/04 12:35:56;;;;;;;1.60;1.33;;;;;;;17.09;55.14;95422.16;5071085;28;20260;-62
2022/10/04 12:38:56;;;;;;;1.83;1.50;;;;;;;18.17;55.75;95411.13;5070783;28;20196;-62
2022/10/04 12:41:35;;;;;;;2.75;1.20;;;;;;;17.67;53.47;95468.63;5060078;28;20626;-61
2022/10/04 12:44:29;;;;;;;1.30;1.20;;;;;;;17.67;52.52;95508.03;5071173;28;20209;-61
2022/10/04 12:47:09;;;;;;;1.67;1.23;;;;;;;17.82;52.90;95493.63;5036534;28;20212;-61